sensor_id;sensor_type;location;lat;lon;timestamp;P1;durP1;ratioP1;P2;durP2;ratioP2
63959;SDS011;50136;51.374;0.096;2023-05-10T00:07:28;14.23;;;8.00;;
63959;SDS011;50136;51.374;0.096;2023-05-10T00:17:29;8.98;;;4.57;;
63959;SDS011;50136;51.374;0.096;2023-05-10T00:27:33;9.43;;;4.22;;
63959;SDS011;50136;51.374;0.096;2023-05-10T00:37:35;5.68;;;3.30;;
63959;SDS011;50136;51.374;0.096;2023-05-10T00:47:38;9.00;;;3.90;;
63959;SDS011;50136;51.374;0.096;2023-05-10T00:57:41;5.95;;;3.63;;
63959;SDS011;50136;51.374;0.096;2023-05-10T01:07:45;6.55;;;4.15;;
63959;SDS011;50136;51.374;0.096;2023-05-10T01:17:47;9.23;;;5.13;;
63959;SDS011;50136;51.374;0.096;2023-05-10T01:38:35;11.98;;;5.68;;
63959;SDS011;50136;51.374;0.096;2023-05-10T01:48:41;9.77;;;5.20;;
63959;SDS011;50136;51.374;0.096;2023-05-10T01:58:49;9.23;;;5.28;;
63959;SDS011;50136;51.374;0.096;2023-05-10T02:08:53;10.75;;;4.95;;
63959;SDS011;50136;51.374;0.096;2023-05-10T02:18:57;7.38;;;5.43;;
63959;SDS011;50136;51.374;0.096;2023-05-10T02:29:02;9.13;;;5.65;;
63959;SDS011;50136;51.374;0.096;2023-05-10T02:39:08;10.30;;;5.38;;
63959;SDS011;50136;51.374;0.096;2023-05-10T02:49:11;11.32;;;5.90;;
63959;SDS011;50136;51.374;0.096;2023-05-10T02:59:15;10.60;;;5.00;;
63959;SDS011;50136;51.374;0.096;2023-05-10T03:09:17;12.70;;;6.03;;
63959;SDS011;50136;51.374;0.096;2023-05-10T03:19:22;8.77;;;4.95;;
63959;SDS011;50136;51.374;0.096;2023-05-10T03:29:27;10.18;;;5.22;;
63959;SDS011;50136;51.374;0.096;2023-05-10T03:39:31;10.52;;;5.68;;
63959;SDS011;50136;51.374;0.096;2023-05-10T03:49:33;12.55;;;6.00;;
63959;SDS011;50136;51.374;0.096;2023-05-10T03:59:37;11.38;;;6.15;;
63959;SDS011;50136;51.374;0.096;2023-05-10T04:09:39;18.50;;;7.90;;
63959;SDS011;50136;51.374;0.096;2023-05-10T04:19:42;12.23;;;7.70;;
63959;SDS011;50136;51.374;0.096;2023-05-10T04:29:44;24.92;;;8.00;;
63959;SDS011;50136;51.374;0.096;2023-05-10T04:39:47;17.17;;;10.27;;
63959;SDS011;50136;51.374;0.096;2023-05-10T04:49:49;13.20;;;7.93;;
63959;SDS011;50136;51.374;0.096;2023-05-10T04:59:52;16.25;;;8.43;;
63959;SDS011;50136;51.374;0.096;2023-05-10T05:09:54;15.32;;;8.30;;
63959;SDS011;50136;51.374;0.096;2023-05-10T05:19:58;15.98;;;8.68;;
63959;SDS011;50136;51.374;0.096;2023-05-10T05:30:00;14.60;;;8.82;;
63959;SDS011;50136;51.374;0.096;2023-05-10T05:40:04;16.52;;;8.75;;
63959;SDS011;50136;51.374;0.096;2023-05-10T05:50:07;20.52;;;11.27;;
63959;SDS011;50136;51.374;0.096;2023-05-10T06:00:11;21.45;;;11.48;;
63959;SDS011;50136;51.374;0.096;2023-05-10T06:10:14;25.77;;;11.55;;
63959;SDS011;50136;51.374;0.096;2023-05-10T06:20:17;17.27;;;11.63;;
63959;SDS011;50136;51.374;0.096;2023-05-10T06:30:19;15.43;;;9.48;;
63959;SDS011;50136;51.374;0.096;2023-05-10T06:40:23;16.45;;;8.48;;
63959;SDS011;50136;51.374;0.096;2023-05-10T06:50:25;16.23;;;8.25;;
63959;SDS011;50136;51.374;0.096;2023-05-10T07:00:28;15.30;;;7.85;;
63959;SDS011;50136;51.374;0.096;2023-05-10T07:10:30;22.10;;;7.95;;
63959;SDS011;50136;51.374;0.096;2023-05-10T07:20:33;14.43;;;6.85;;
63959;SDS011;50136;51.374;0.096;2023-05-10T07:30:35;16.27;;;8.32;;
63959;SDS011;50136;51.374;0.096;2023-05-10T07:40:39;14.55;;;7.47;;
63959;SDS011;50136;51.374;0.096;2023-05-10T07:50:41;16.88;;;6.35;;
63959;SDS011;50136;51.374;0.096;2023-05-10T08:00:44;19.25;;;6.15;;
63959;SDS011;50136;51.374;0.096;2023-05-10T08:10:46;16.45;;;4.30;;
63959;SDS011;50136;51.374;0.096;2023-05-10T08:20:50;10.60;;;3.92;;
63959;SDS011;50136;51.374;0.096;2023-05-10T08:30:51;12.23;;;4.80;;
63959;SDS011;50136;51.374;0.096;2023-05-10T08:41:00;11.82;;;3.90;;
63959;SDS011;50136;51.374;0.096;2023-05-10T08:51:03;12.57;;;4.45;;
63959;SDS011;50136;51.374;0.096;2023-05-10T09:01:07;10.82;;;4.90;;
63959;SDS011;50136;51.374;0.096;2023-05-10T09:11:13;6.85;;;3.40;;
63959;SDS011;50136;51.374;0.096;2023-05-10T09:21:18;10.27;;;3.97;;
63959;SDS011;50136;51.374;0.096;2023-05-10T09:31:21;8.55;;;4.30;;
63959;SDS011;50136;51.374;0.096;2023-05-10T09:41:30;8.23;;;3.60;;
63959;SDS011;50136;51.374;0.096;2023-05-10T09:51:32;7.47;;;2.95;;
63959;SDS011;50136;51.374;0.096;2023-05-10T10:01:38;6.28;;;3.22;;
63959;SDS011;50136;51.374;0.096;2023-05-10T10:11:41;8.77;;;3.42;;
63959;SDS011;50136;51.374;0.096;2023-05-10T10:21:46;7.65;;;3.70;;
63959;SDS011;50136;51.374;0.096;2023-05-10T10:31:50;6.82;;;3.70;;
63959;SDS011;50136;51.374;0.096;2023-05-10T10:42:00;4.90;;;2.78;;
63959;SDS011;50136;51.374;0.096;2023-05-10T10:52:15;6.78;;;3.25;;
63959;SDS011;50136;51.374;0.096;2023-05-10T11:02:36;7.15;;;3.70;;
63959;SDS011;50136;51.374;0.096;2023-05-10T11:12:51;8.98;;;3.17;;
63959;SDS011;50136;51.374;0.096;2023-05-10T11:22:55;7.40;;;3.63;;
63959;SDS011;50136;51.374;0.096;2023-05-10T11:32:57;5.60;;;3.30;;
63959;SDS011;50136;51.374;0.096;2023-05-10T11:43:01;6.25;;;3.08;;
63959;SDS011;50136;51.374;0.096;2023-05-10T11:53:03;7.30;;;2.72;;
63959;SDS011;50136;51.374;0.096;2023-05-10T12:03:06;9.80;;;2.83;;
63959;SDS011;50136;51.374;0.096;2023-05-10T12:13:12;4.85;;;2.38;;
63959;SDS011;50136;51.374;0.096;2023-05-10T12:23:16;8.77;;;2.38;;
63959;SDS011;50136;51.374;0.096;2023-05-10T12:33:18;5.30;;;2.13;;
63959;SDS011;50136;51.374;0.096;2023-05-10T12:43:23;6.80;;;2.22;;
63959;SDS011;50136;51.374;0.096;2023-05-10T12:53:25;6.13;;;1.98;;
63959;SDS011;50136;51.374;0.096;2023-05-10T13:03:28;6.72;;;2.20;;
63959;SDS011;50136;51.374;0.096;2023-05-10T13:13:31;4.32;;;1.83;;
63959;SDS011;50136;51.374;0.096;2023-05-10T13:23:35;3.47;;;2.35;;
63959;SDS011;50136;51.374;0.096;2023-05-10T13:33:36;9.95;;;3.42;;
63959;SDS011;50136;51.374;0.096;2023-05-10T13:43:40;6.88;;;2.85;;
63959;SDS011;50136;51.374;0.096;2023-05-10T13:53:42;4.63;;;1.95;;
63959;SDS011;50136;51.374;0.096;2023-05-10T14:03:45;5.68;;;2.33;;
63959;SDS011;50136;51.374;0.096;2023-05-10T14:13:47;7.18;;;2.00;;
63959;SDS011;50136;51.374;0.096;2023-05-10T14:23:50;4.93;;;2.17;;
63959;SDS011;50136;51.374;0.096;2023-05-10T14:33:54;10.27;;;2.28;;
63959;SDS011;50136;51.374;0.096;2023-05-10T14:43:57;6.22;;;2.38;;
63959;SDS011;50136;51.374;0.096;2023-05-10T14:53:59;7.25;;;1.77;;
63959;SDS011;50136;51.374;0.096;2023-05-10T15:04:03;3.70;;;1.27;;
63959;SDS011;50136;51.374;0.096;2023-05-10T15:14:05;3.08;;;1.23;;
63959;SDS011;50136;51.374;0.096;2023-05-10T15:24:08;2.30;;;0.90;;
63959;SDS011;50136;51.374;0.096;2023-05-10T15:34:10;3.88;;;1.30;;
63959;SDS011;50136;51.374;0.096;2023-05-10T15:44:13;4.32;;;1.42;;
63959;SDS011;50136;51.374;0.096;2023-05-10T15:54:15;7.32;;;1.52;;
63959;SDS011;50136;51.374;0.096;2023-05-10T16:04:29;4.93;;;1.60;;
63959;SDS011;50136;51.374;0.096;2023-05-10T16:14:42;4.35;;;1.90;;
63959;SDS011;50136;51.374;0.096;2023-05-10T18:39:43;6.10;;;1.83;;
63959;SDS011;50136;51.374;0.096;2023-05-10T18:49:45;7.13;;;2.38;;
63959;SDS011;50136;51.374;0.096;2023-05-10T18:59:51;6.47;;;2.20;;
63959;SDS011;50136;51.374;0.096;2023-05-10T19:09:53;4.53;;;2.10;;
63959;SDS011;50136;51.374;0.096;2023-05-10T19:19:56;4.75;;;2.10;;
63959;SDS011;50136;51.374;0.096;2023-05-10T19:29:58;7.38;;;2.80;;
63959;SDS011;50136;51.374;0.096;2023-05-10T19:40:01;8.50;;;3.58;;
63959;SDS011;50136;51.374;0.096;2023-05-10T19:50:04;8.63;;;3.15;;
63959;SDS011;50136;51.374;0.096;2023-05-10T20:00:09;4.88;;;2.58;;
63959;SDS011;50136;51.374;0.096;2023-05-10T20:10:12;4.53;;;2.28;;
63959;SDS011;50136;51.374;0.096;2023-05-10T20:20:16;6.43;;;2.17;;
63959;SDS011;50136;51.374;0.096;2023-05-10T20:30:18;7.90;;;2.30;;
63959;SDS011;50136;51.374;0.096;2023-05-10T20:40:22;3.85;;;1.55;;
63959;SDS011;50136;51.374;0.096;2023-05-10T20:50:29;4.32;;;1.50;;
63959;SDS011;50136;51.374;0.096;2023-05-10T21:00:33;3.00;;;0.80;;
63959;SDS011;50136;51.374;0.096;2023-05-10T21:10:35;2.22;;;1.10;;
63959;SDS011;50136;51.374;0.096;2023-05-10T21:20:38;7.30;;;1.23;;
63959;SDS011;50136;51.374;0.096;2023-05-10T21:30:40;5.72;;;1.30;;
63959;SDS011;50136;51.374;0.096;2023-05-10T21:40:43;6.53;;;1.13;;
63959;SDS011;50136;51.374;0.096;2023-05-10T21:50:45;7.13;;;2.45;;
63959;SDS011;50136;51.374;0.096;2023-05-10T22:00:49;4.07;;;1.40;;
63959;SDS011;50136;51.374;0.096;2023-05-10T22:10:51;2.55;;;1.55;;
63959;SDS011;50136;51.374;0.096;2023-05-10T22:20:54;3.40;;;1.85;;
63959;SDS011;50136;51.374;0.096;2023-05-10T22:30:56;5.38;;;1.73;;
63959;SDS011;50136;51.374;0.096;2023-05-10T22:40:59;3.55;;;2.22;;
63959;SDS011;50136;51.374;0.096;2023-05-10T22:51:01;5.72;;;2.42;;
63959;SDS011;50136;51.374;0.096;2023-05-10T23:01:05;3.92;;;1.98;;
63959;SDS011;50136;51.374;0.096;2023-05-10T23:11:07;4.22;;;1.70;;
63959;SDS011;50136;51.374;0.096;2023-05-10T23:21:10;5.20;;;1.40;;
63959;SDS011;50136;51.374;0.096;2023-05-10T23:31:12;35.63;;;2.95;;
63959;SDS011;50136;51.374;0.096;2023-05-10T23:41:15;5.72;;;1.65;;
63959;SDS011;50136;51.374;0.096;2023-05-10T23:51:17;7.50;;;1.45;;
